Pagrindinis puslapis
METAR-TAF:

METAR-TAF

Oro uostai :

Ndžamena, Čadas

platuma: 12-08N, ilguma: 015-02E, Aukštis: 295 m

Dabartinis oras

Ataskaita buvo paskelbta 4 valandos ir 51 minutes, ne 18:00 UTC
Vėjas 4 kt iš Pietų/Pietryčių
Temperatūra 29°C
Drėgmė 74%
Slėgis 1008 hPa
Matomumas: 8000 m

METAR: FTTJ 241800Z 15004KT 8000 NSC 29/24 Q1008 NOSIG

Laikas: 23:51 (22:51 UTC)

Prognozė

Ataskaita buvo paskelbta 5 valandos ir 51 minutes, ne 17:00 UTC
Prognozė galioja nuo 24 metu 18 UTC su 25 metu 24 UTC
Vėjas 6 kt iš Pietų/Pietvakarių
Matomumas: 8000 m
Mažai debesys ne aukštis 4000 ft
Tikimybė 30% :
Laikinai
nuo 25 metu 11 UTC su 25 metu 18 UTC
perkūnija

TAF: FTTJ 241700Z 2418/2524 20006KT 8000 FEW040 PROB30 TEMPO 2511/2518 TS

Orai ataskaitas ir orų prognozės (METAR, TAF).

turimą stotys yra geltonos ir raudonos taškus žemėlapyje.

Perkelti pele per norėdami pamatyti stoties vardą.

Tada spustelėkite, norėdami matyti oro stebėjimo ir prognozės.

Norėdami pakeisti žemėlapį: spustelėkite ant žalios mygtukų su juodo kryžiaus žemyn,; žalią mygtuką su brūkšneliu, jei norite nutolinti; arba žalių rodyklių gretimoms žemėlapius.


METAR-TAF: